sensor_id;sensor_type;location;lat;lon;timestamp;P1;durP1;ratioP1;P2;durP2;ratioP2
9392;SDS011;4736;52.508;13.422;2024-03-08T00:02:49;25.73;;;19.43;;
9392;SDS011;4736;52.508;13.422;2024-03-08T00:05:53;29.80;;;20.57;;
9392;SDS011;4736;52.508;13.422;2024-03-08T00:08:57;27.03;;;19.30;;
9392;SDS011;4736;52.508;13.422;2024-03-08T00:12:00;24.73;;;18.93;;
9392;SDS011;4736;52.508;13.422;2024-03-08T00:15:04;22.87;;;19.93;;
9392;SDS011;4736;52.508;13.422;2024-03-08T00:18:10;27.43;;;19.90;;
9392;SDS011;4736;52.508;13.422;2024-03-08T00:21:13;28.30;;;21.23;;
9392;SDS011;4736;52.508;13.422;2024-03-08T00:24:16;30.43;;;21.93;;
9392;SDS011;4736;52.508;13.422;2024-03-08T00:27:19;26.83;;;20.73;;
9392;SDS011;4736;52.508;13.422;2024-03-08T00:30:23;30.80;;;22.17;;
9392;SDS011;4736;52.508;13.422;2024-03-08T00:33:28;24.43;;;19.90;;
9392;SDS011;4736;52.508;13.422;2024-03-08T00:36:31;26.90;;;20.13;;
9392;SDS011;4736;52.508;13.422;2024-03-08T00:39:34;26.27;;;20.13;;
9392;SDS011;4736;52.508;13.422;2024-03-08T00:42:37;30.20;;;22.00;;
9392;SDS011;4736;52.508;13.422;2024-03-08T00:45:41;29.20;;;20.27;;
9392;SDS011;4736;52.508;13.422;2024-03-08T00:48:46;31.40;;;21.30;;
9392;SDS011;4736;52.508;13.422;2024-03-08T00:51:49;25.17;;;20.13;;
9392;SDS011;4736;52.508;13.422;2024-03-08T00:54:52;30.17;;;20.63;;
9392;SDS011;4736;52.508;13.422;2024-03-08T00:57:56;26.63;;;19.83;;
9392;SDS011;4736;52.508;13.422;2024-03-08T01:00:59;29.03;;;21.00;;
9392;SDS011;4736;52.508;13.422;2024-03-08T01:04:03;26.27;;;20.33;;
9392;SDS011;4736;52.508;13.422;2024-03-08T01:07:06;28.07;;;20.87;;
9392;SDS011;4736;52.508;13.422;2024-03-08T01:10:10;30.13;;;20.50;;
9392;SDS011;4736;52.508;13.422;2024-03-08T01:13:13;26.33;;;20.17;;
9392;SDS011;4736;52.508;13.422;2024-03-08T01:16:16;30.13;;;21.77;;
9392;SDS011;4736;52.508;13.422;2024-03-08T01:19:20;29.93;;;20.70;;
9392;SDS011;4736;52.508;13.422;2024-03-08T01:22:25;28.20;;;21.13;;
9392;SDS011;4736;52.508;13.422;2024-03-08T01:25:29;30.33;;;21.07;;
9392;SDS011;4736;52.508;13.422;2024-03-08T01:28:33;29.87;;;21.70;;
9392;SDS011;4736;52.508;13.422;2024-03-08T01:31:36;29.73;;;20.30;;
9392;SDS011;4736;52.508;13.422;2024-03-08T01:34:41;31.00;;;21.37;;
9392;SDS011;4736;52.508;13.422;2024-03-08T01:37:45;32.07;;;21.07;;
9392;SDS011;4736;52.508;13.422;2024-03-08T01:40:51;30.27;;;21.50;;
9392;SDS011;4736;52.508;13.422;2024-03-08T01:43:54;26.37;;;19.97;;
9392;SDS011;4736;52.508;13.422;2024-03-08T01:46:57;28.17;;;20.73;;
9392;SDS011;4736;52.508;13.422;2024-03-08T01:50:01;27.97;;;20.67;;
9392;SDS011;4736;52.508;13.422;2024-03-08T01:53:05;27.93;;;20.33;;
9392;SDS011;4736;52.508;13.422;2024-03-08T01:56:11;27.47;;;21.07;;
9392;SDS011;4736;52.508;13.422;2024-03-08T01:59:15;31.90;;;21.50;;
9392;SDS011;4736;52.508;13.422;2024-03-08T02:02:18;24.40;;;20.10;;
9392;SDS011;4736;52.508;13.422;2024-03-08T02:05:24;36.27;;;22.00;;
9392;SDS011;4736;52.508;13.422;2024-03-08T02:08:28;32.97;;;20.83;;
9392;SDS011;4736;52.508;13.422;2024-03-08T02:11:33;29.93;;;22.17;;
9392;SDS011;4736;52.508;13.422;2024-03-08T02:14:37;31.10;;;22.17;;
9392;SDS011;4736;52.508;13.422;2024-03-08T02:17:41;29.50;;;20.53;;
9392;SDS011;4736;52.508;13.422;2024-03-08T02:20:46;29.77;;;19.93;;
9392;SDS011;4736;52.508;13.422;2024-03-08T02:23:49;33.40;;;21.93;;
9392;SDS011;4736;52.508;13.422;2024-03-08T02:26:53;34.03;;;20.80;;
9392;SDS011;4736;52.508;13.422;2024-03-08T02:29:57;30.03;;;21.53;;
9392;SDS011;4736;52.508;13.422;2024-03-08T02:33:01;29.33;;;20.77;;
9392;SDS011;4736;52.508;13.422;2024-03-08T02:36:07;31.10;;;21.40;;
9392;SDS011;4736;52.508;13.422;2024-03-08T02:39:10;31.80;;;20.67;;
9392;SDS011;4736;52.508;13.422;2024-03-08T02:42:13;27.83;;;20.67;;
9392;SDS011;4736;52.508;13.422;2024-03-08T02:45:16;30.37;;;21.13;;
9392;SDS011;4736;52.508;13.422;2024-03-08T02:48:20;31.17;;;21.60;;
9392;SDS011;4736;52.508;13.422;2024-03-08T02:51:25;30.37;;;22.20;;
9392;SDS011;4736;52.508;13.422;2024-03-08T02:54:28;34.43;;;21.93;;
9392;SDS011;4736;52.508;13.422;2024-03-08T02:57:31;29.80;;;20.67;;
9392;SDS011;4736;52.508;13.422;2024-03-08T03:00:35;35.97;;;23.77;;
9392;SDS011;4736;52.508;13.422;2024-03-08T03:03:38;33.57;;;23.30;;
9392;SDS011;4736;52.508;13.422;2024-03-08T03:06:42;31.13;;;21.10;;
9392;SDS011;4736;52.508;13.422;2024-03-08T03:09:46;29.03;;;22.33;;
9392;SDS011;4736;52.508;13.422;2024-03-08T03:12:49;32.40;;;23.13;;
9392;SDS011;4736;52.508;13.422;2024-03-08T03:15:52;31.83;;;22.10;;
9392;SDS011;4736;52.508;13.422;2024-03-08T03:18:56;34.87;;;22.50;;
9392;SDS011;4736;52.508;13.422;2024-03-08T03:22:01;30.80;;;21.97;;
9392;SDS011;4736;52.508;13.422;2024-03-08T03:25:07;36.70;;;23.03;;
9392;SDS011;4736;52.508;13.422;2024-03-08T03:28:11;33.47;;;23.33;;
9392;SDS011;4736;52.508;13.422;2024-03-08T03:31:18;36.10;;;23.73;;
9392;SDS011;4736;52.508;13.422;2024-03-08T03:34:25;34.30;;;23.67;;
9392;SDS011;4736;52.508;13.422;2024-03-08T03:37:29;35.07;;;23.73;;
9392;SDS011;4736;52.508;13.422;2024-03-08T03:40:32;36.37;;;23.13;;
9392;SDS011;4736;52.508;13.422;2024-03-08T03:43:35;35.73;;;24.20;;
9392;SDS011;4736;52.508;13.422;2024-03-08T03:46:41;32.53;;;23.20;;
9392;SDS011;4736;52.508;13.422;2024-03-08T03:49:46;33.20;;;23.07;;
9392;SDS011;4736;52.508;13.422;2024-03-08T03:52:50;32.43;;;22.83;;
9392;SDS011;4736;52.508;13.422;2024-03-08T03:55:53;32.93;;;23.20;;
9392;SDS011;4736;52.508;13.422;2024-03-08T03:58:57;37.67;;;24.77;;
9392;SDS011;4736;52.508;13.422;2024-03-08T04:02:00;37.33;;;23.43;;
9392;SDS011;4736;52.508;13.422;2024-03-08T04:05:03;34.90;;;23.60;;
9392;SDS011;4736;52.508;13.422;2024-03-08T04:08:08;34.93;;;24.53;;
9392;SDS011;4736;52.508;13.422;2024-03-08T04:11:11;34.33;;;24.60;;
9392;SDS011;4736;52.508;13.422;2024-03-08T04:14:17;38.57;;;23.93;;
9392;SDS011;4736;52.508;13.422;2024-03-08T04:17:20;34.90;;;25.07;;
9392;SDS011;4736;52.508;13.422;2024-03-08T04:20:25;34.60;;;23.67;;
9392;SDS011;4736;52.508;13.422;2024-03-08T04:23:29;36.63;;;24.63;;
9392;SDS011;4736;52.508;13.422;2024-03-08T04:26:32;38.67;;;24.73;;
9392;SDS011;4736;52.508;13.422;2024-03-08T04:29:36;38.77;;;25.07;;
9392;SDS011;4736;52.508;13.422;2024-03-08T04:32:39;35.43;;;24.70;;
9392;SDS011;4736;52.508;13.422;2024-03-08T04:35:44;35.30;;;25.00;;
9392;SDS011;4736;52.508;13.422;2024-03-08T04:38:50;33.73;;;23.33;;
9392;SDS011;4736;52.508;13.422;2024-03-08T04:41:53;41.20;;;25.27;;
9392;SDS011;4736;52.508;13.422;2024-03-08T04:44:57;36.87;;;24.30;;
9392;SDS011;4736;52.508;13.422;2024-03-08T04:48:01;36.20;;;25.20;;
9392;SDS011;4736;52.508;13.422;2024-03-08T04:51:04;39.93;;;25.60;;
9392;SDS011;4736;52.508;13.422;2024-03-08T04:54:09;40.97;;;24.83;;
9392;SDS011;4736;52.508;13.422;2024-03-08T04:57:13;34.37;;;25.27;;
9392;SDS011;4736;52.508;13.422;2024-03-08T05:00:16;37.77;;;25.57;;
9392;SDS011;4736;52.508;13.422;2024-03-08T05:03:20;46.63;;;25.53;;
9392;SDS011;4736;52.508;13.422;2024-03-08T05:06:23;38.33;;;24.93;;
9392;SDS011;4736;52.508;13.422;2024-03-08T05:09:28;37.93;;;24.57;;
9392;SDS011;4736;52.508;13.422;2024-03-08T05:12:33;33.80;;;23.83;;
9392;SDS011;4736;52.508;13.422;2024-03-08T05:15:36;40.87;;;26.57;;
9392;SDS011;4736;52.508;13.422;2024-03-08T05:18:40;38.20;;;26.00;;
9392;SDS011;4736;52.508;13.422;2024-03-08T05:21:44;38.00;;;24.67;;
9392;SDS011;4736;52.508;13.422;2024-03-08T05:24:49;38.97;;;25.90;;
9392;SDS011;4736;52.508;13.422;2024-03-08T05:27:52;40.80;;;25.93;;
9392;SDS011;4736;52.508;13.422;2024-03-08T05:30:55;38.17;;;25.00;;
9392;SDS011;4736;52.508;13.422;2024-03-08T05:33:58;40.57;;;25.93;;
9392;SDS011;4736;52.508;13.422;2024-03-08T05:37:02;36.23;;;25.83;;
9392;SDS011;4736;52.508;13.422;2024-03-08T05:40:08;40.33;;;25.63;;
9392;SDS011;4736;52.508;13.422;2024-03-08T05:43:18;45.53;;;25.97;;
9392;SDS011;4736;52.508;13.422;2024-03-08T05:46:21;38.60;;;26.77;;
9392;SDS011;4736;52.508;13.422;2024-03-08T05:49:24;39.40;;;25.83;;
9392;SDS011;4736;52.508;13.422;2024-03-08T05:52:27;42.83;;;26.77;;
9392;SDS011;4736;52.508;13.422;2024-03-08T05:55:32;39.20;;;26.20;;
9392;SDS011;4736;52.508;13.422;2024-03-08T05:58:36;39.20;;;26.80;;
9392;SDS011;4736;52.508;13.422;2024-03-08T06:01:39;40.00;;;27.27;;
9392;SDS011;4736;52.508;13.422;2024-03-08T06:04:43;39.30;;;26.10;;
9392;SDS011;4736;52.508;13.422;2024-03-08T06:07:48;41.33;;;27.07;;
9392;SDS011;4736;52.508;13.422;2024-03-08T06:10:52;36.30;;;26.27;;
9392;SDS011;4736;52.508;13.422;2024-03-08T06:13:55;40.53;;;27.53;;
9392;SDS011;4736;52.508;13.422;2024-03-08T06:17:01;40.43;;;28.47;;
9392;SDS011;4736;52.508;13.422;2024-03-08T06:20:07;44.77;;;29.73;;
9392;SDS011;4736;52.508;13.422;2024-03-08T06:23:15;42.13;;;27.30;;
9392;SDS011;4736;52.508;13.422;2024-03-08T06:26:20;41.13;;;27.83;;
9392;SDS011;4736;52.508;13.422;2024-03-08T06:29:24;43.07;;;27.57;;
9392;SDS011;4736;52.508;13.422;2024-03-08T06:32:27;45.83;;;28.97;;
9392;SDS011;4736;52.508;13.422;2024-03-08T06:35:30;41.73;;;27.23;;
9392;SDS011;4736;52.508;13.422;2024-03-08T06:38:34;40.03;;;26.13;;
9392;SDS011;4736;52.508;13.422;2024-03-08T06:41:38;40.83;;;26.60;;
9392;SDS011;4736;52.508;13.422;2024-03-08T06:44:42;40.60;;;26.37;;
9392;SDS011;4736;52.508;13.422;2024-03-08T06:47:50;39.50;;;26.80;;
9392;SDS011;4736;52.508;13.422;2024-03-08T06:50:54;43.60;;;28.37;;
9392;SDS011;4736;52.508;13.422;2024-03-08T06:53:57;42.13;;;26.43;;
9392;SDS011;4736;52.508;13.422;2024-03-08T06:57:02;39.80;;;27.30;;
9392;SDS011;4736;52.508;13.422;2024-03-08T07:00:06;38.83;;;25.93;;
9392;SDS011;4736;52.508;13.422;2024-03-08T07:03:13;42.30;;;25.57;;
9392;SDS011;4736;52.508;13.422;2024-03-08T07:06:18;36.97;;;25.67;;
9392;SDS011;4736;52.508;13.422;2024-03-08T07:09:22;38.53;;;27.07;;
9392;SDS011;4736;52.508;13.422;2024-03-08T07:12:26;37.73;;;24.80;;
9392;SDS011;4736;52.508;13.422;2024-03-08T07:15:30;40.73;;;26.37;;
9392;SDS011;4736;52.508;13.422;2024-03-08T07:18:33;37.40;;;25.50;;
9392;SDS011;4736;52.508;13.422;2024-03-08T07:21:42;36.83;;;24.83;;
9392;SDS011;4736;52.508;13.422;2024-03-08T07:24:45;39.23;;;24.57;;
9392;SDS011;4736;52.508;13.422;2024-03-08T07:28:07;32.27;;;22.47;;
9392;SDS011;4736;52.508;13.422;2024-03-08T07:31:14;37.60;;;24.40;;
9392;SDS011;4736;52.508;13.422;2024-03-08T07:34:28;37.23;;;24.33;;
9392;SDS011;4736;52.508;13.422;2024-03-08T07:37:33;34.90;;;24.20;;
9392;SDS011;4736;52.508;13.422;2024-03-08T07:40:36;38.70;;;25.73;;
9392;SDS011;4736;52.508;13.422;2024-03-08T07:43:43;36.07;;;25.63;;
9392;SDS011;4736;52.508;13.422;2024-03-08T07:46:46;37.30;;;24.23;;
9392;SDS011;4736;52.508;13.422;2024-03-08T07:49:50;32.27;;;23.10;;
9392;SDS011;4736;52.508;13.422;2024-03-08T07:52:55;34.70;;;24.03;;
9392;SDS011;4736;52.508;13.422;2024-03-08T07:55:58;34.90;;;23.83;;
9392;SDS011;4736;52.508;13.422;2024-03-08T07:59:03;34.67;;;24.13;;
9392;SDS011;4736;52.508;13.422;2024-03-08T08:02:07;31.60;;;23.17;;
9392;SDS011;4736;52.508;13.422;2024-03-08T08:05:10;38.50;;;25.37;;
9392;SDS011;4736;52.508;13.422;2024-03-08T08:08:16;34.93;;;23.60;;
9392;SDS011;4736;52.508;13.422;2024-03-08T08:11:20;37.97;;;24.87;;
9392;SDS011;4736;52.508;13.422;2024-03-08T08:14:24;34.80;;;24.37;;
9392;SDS011;4736;52.508;13.422;2024-03-08T08:17:27;35.77;;;24.40;;
9392;SDS011;4736;52.508;13.422;2024-03-08T08:20:31;34.10;;;24.23;;
9392;SDS011;4736;52.508;13.422;2024-03-08T08:23:34;33.87;;;24.00;;
9392;SDS011;4736;52.508;13.422;2024-03-08T08:26:37;31.00;;;23.47;;
9392;SDS011;4736;52.508;13.422;2024-03-08T08:29:42;33.13;;;23.90;;
9392;SDS011;4736;52.508;13.422;2024-03-08T08:32:47;34.27;;;24.57;;
9392;SDS011;4736;52.508;13.422;2024-03-08T08:35:51;32.20;;;24.47;;
9392;SDS011;4736;52.508;13.422;2024-03-08T08:38:55;30.20;;;22.20;;
9392;SDS011;4736;52.508;13.422;2024-03-08T08:41:59;33.17;;;23.53;;
9392;SDS011;4736;52.508;13.422;2024-03-08T08:45:06;35.50;;;23.53;;
9392;SDS011;4736;52.508;13.422;2024-03-08T08:48:18;33.53;;;23.00;;
9392;SDS011;4736;52.508;13.422;2024-03-08T08:51:21;34.47;;;22.87;;
9392;SDS011;4736;52.508;13.422;2024-03-08T08:54:24;31.00;;;22.30;;
9392;SDS011;4736;52.508;13.422;2024-03-08T08:57:29;34.53;;;22.60;;
9392;SDS011;4736;52.508;13.422;2024-03-08T09:00:35;30.13;;;23.07;;
9392;SDS011;4736;52.508;13.422;2024-03-08T09:03:38;28.70;;;22.27;;
9392;SDS011;4736;52.508;13.422;2024-03-08T09:06:42;28.60;;;21.87;;
9392;SDS011;4736;52.508;13.422;2024-03-08T09:09:46;31.77;;;23.73;;
9392;SDS011;4736;52.508;13.422;2024-03-08T09:12:49;28.30;;;22.00;;
9392;SDS011;4736;52.508;13.422;2024-03-08T09:15:53;31.40;;;22.37;;
9392;SDS011;4736;52.508;13.422;2024-03-08T09:18:56;31.50;;;23.43;;
9392;SDS011;4736;52.508;13.422;2024-03-08T09:21:59;30.00;;;22.87;;
9392;SDS011;4736;52.508;13.422;2024-03-08T09:25:05;28.33;;;21.83;;
9392;SDS011;4736;52.508;13.422;2024-03-08T09:28:08;34.63;;;23.53;;
9392;SDS011;4736;52.508;13.422;2024-03-08T09:31:14;29.17;;;22.53;;
9392;SDS011;4736;52.508;13.422;2024-03-08T09:34:18;29.40;;;22.50;;
9392;SDS011;4736;52.508;13.422;2024-03-08T09:37:29;29.57;;;22.13;;
9392;SDS011;4736;52.508;13.422;2024-03-08T09:40:32;29.90;;;22.17;;
9392;SDS011;4736;52.508;13.422;2024-03-08T09:43:36;29.90;;;23.03;;
9392;SDS011;4736;52.508;13.422;2024-03-08T09:46:41;32.00;;;22.73;;
9392;SDS011;4736;52.508;13.422;2024-03-08T09:49:45;30.67;;;23.13;;
9392;SDS011;4736;52.508;13.422;2024-03-08T09:52:48;33.03;;;22.77;;
9392;SDS011;4736;52.508;13.422;2024-03-08T09:55:52;27.57;;;21.93;;
9392;SDS011;4736;52.508;13.422;2024-03-08T09:58:55;29.27;;;21.30;;
9392;SDS011;4736;52.508;13.422;2024-03-08T10:02:22;29.60;;;21.80;;
9392;SDS011;4736;52.508;13.422;2024-03-08T10:05:25;29.87;;;21.30;;
9392;SDS011;4736;52.508;13.422;2024-03-08T10:08:29;28.30;;;20.77;;
9392;SDS011;4736;52.508;13.422;2024-03-08T10:11:32;26.00;;;19.83;;
9392;SDS011;4736;52.508;13.422;2024-03-08T10:14:38;27.63;;;19.30;;
9392;SDS011;4736;52.508;13.422;2024-03-08T10:17:45;26.33;;;20.80;;
9392;SDS011;4736;52.508;13.422;2024-03-08T10:21:01;24.40;;;19.63;;
9392;SDS011;4736;52.508;13.422;2024-03-08T10:24:06;29.43;;;20.50;;
9392;SDS011;4736;52.508;13.422;2024-03-08T10:27:16;26.27;;;19.83;;
9392;SDS011;4736;52.508;13.422;2024-03-08T10:30:19;26.57;;;19.57;;
9392;SDS011;4736;52.508;13.422;2024-03-08T10:33:24;23.53;;;18.90;;
9392;SDS011;4736;52.508;13.422;2024-03-08T10:36:27;25.53;;;19.90;;
9392;SDS011;4736;52.508;13.422;2024-03-08T10:39:34;24.67;;;18.30;;
9392;SDS011;4736;52.508;13.422;2024-03-08T10:42:39;24.40;;;18.03;;
9392;SDS011;4736;52.508;13.422;2024-03-08T10:45:50;24.33;;;18.13;;
9392;SDS011;4736;52.508;13.422;2024-03-08T10:48:58;24.67;;;17.73;;
9392;SDS011;4736;52.508;13.422;2024-03-08T10:52:07;21.60;;;17.10;;
9392;SDS011;4736;52.508;13.422;2024-03-08T10:55:11;21.83;;;17.63;;
9392;SDS011;4736;52.508;13.422;2024-03-08T10:58:16;24.43;;;17.70;;
9392;SDS011;4736;52.508;13.422;2024-03-08T11:01:20;24.50;;;17.70;;
9392;SDS011;4736;52.508;13.422;2024-03-08T11:04:24;21.80;;;17.93;;
9392;SDS011;4736;52.508;13.422;2024-03-08T11:07:33;21.27;;;17.77;;
9392;SDS011;4736;52.508;13.422;2024-03-08T11:10:45;23.37;;;18.13;;
9392;SDS011;4736;52.508;13.422;2024-03-08T11:13:53;23.37;;;17.73;;
9392;SDS011;4736;52.508;13.422;2024-03-08T11:16:57;22.27;;;17.60;;
9392;SDS011;4736;52.508;13.422;2024-03-08T11:20:02;23.47;;;17.83;;
9392;SDS011;4736;52.508;13.422;2024-03-08T11:23:16;22.27;;;17.97;;
9392;SDS011;4736;52.508;13.422;2024-03-08T11:26:27;23.90;;;17.53;;
9392;SDS011;4736;52.508;13.422;2024-03-08T11:29:32;24.07;;;18.90;;
9392;SDS011;4736;52.508;13.422;2024-03-08T11:32:38;21.83;;;17.47;;
9392;SDS011;4736;52.508;13.422;2024-03-08T11:35:49;20.80;;;16.87;;
9392;SDS011;4736;52.508;13.422;2024-03-08T11:38:52;24.70;;;18.20;;
9392;SDS011;4736;52.508;13.422;2024-03-08T11:41:57;23.77;;;18.03;;
9392;SDS011;4736;52.508;13.422;2024-03-08T11:45:07;21.37;;;17.93;;
9392;SDS011;4736;52.508;13.422;2024-03-08T11:48:12;20.03;;;17.47;;
9392;SDS011;4736;52.508;13.422;2024-03-08T11:51:17;20.87;;;16.77;;
9392;SDS011;4736;52.508;13.422;2024-03-08T11:54:21;21.10;;;17.00;;
9392;SDS011;4736;52.508;13.422;2024-03-08T11:57:25;21.20;;;17.60;;
9392;SDS011;4736;52.508;13.422;2024-03-08T12:00:29;20.70;;;17.33;;
9392;SDS011;4736;52.508;13.422;2024-03-08T12:03:37;22.40;;;18.27;;
9392;SDS011;4736;52.508;13.422;2024-03-08T12:06:41;19.87;;;17.70;;
9392;SDS011;4736;52.508;13.422;2024-03-08T12:13:19;21.27;;;17.43;;
9392;SDS011;4736;52.508;13.422;2024-03-08T12:16:23;21.33;;;18.20;;
9392;SDS011;4736;52.508;13.422;2024-03-08T12:19:26;20.73;;;18.17;;
9392;SDS011;4736;52.508;13.422;2024-03-08T12:22:31;21.60;;;17.60;;
9392;SDS011;4736;52.508;13.422;2024-03-08T12:25:34;23.77;;;18.63;;
9392;SDS011;4736;52.508;13.422;2024-03-08T12:28:38;21.17;;;17.23;;
9392;SDS011;4736;52.508;13.422;2024-03-08T12:31:41;19.43;;;17.30;;
9392;SDS011;4736;52.508;13.422;2024-03-08T12:34:51;22.30;;;17.80;;
9392;SDS011;4736;52.508;13.422;2024-03-08T12:37:57;22.00;;;16.87;;
9392;SDS011;4736;52.508;13.422;2024-03-08T12:41:01;22.07;;;17.93;;
9392;SDS011;4736;52.508;13.422;2024-03-08T12:44:06;22.60;;;18.20;;
9392;SDS011;4736;52.508;13.422;2024-03-08T12:47:12;24.70;;;18.47;;
9392;SDS011;4736;52.508;13.422;2024-03-08T12:50:16;22.07;;;18.33;;
9392;SDS011;4736;52.508;13.422;2024-03-08T12:53:21;20.97;;;17.00;;
9392;SDS011;4736;52.508;13.422;2024-03-08T12:56:28;21.07;;;16.43;;
9392;SDS011;4736;52.508;13.422;2024-03-08T12:59:33;21.33;;;17.43;;
9392;SDS011;4736;52.508;13.422;2024-03-08T13:02:37;20.20;;;16.70;;
9392;SDS011;4736;52.508;13.422;2024-03-08T13:05:40;19.87;;;16.47;;
9392;SDS011;4736;52.508;13.422;2024-03-08T13:08:45;21.17;;;17.30;;
9392;SDS011;4736;52.508;13.422;2024-03-08T13:11:49;20.07;;;16.50;;
9392;SDS011;4736;52.508;13.422;2024-03-08T13:14:53;21.80;;;17.50;;
9392;SDS011;4736;52.508;13.422;2024-03-08T13:17:57;20.27;;;17.57;;
9392;SDS011;4736;52.508;13.422;2024-03-08T13:21:01;23.33;;;17.97;;
9392;SDS011;4736;52.508;13.422;2024-03-08T13:24:09;18.40;;;16.13;;
9392;SDS011;4736;52.508;13.422;2024-03-08T13:27:12;21.27;;;17.27;;
9392;SDS011;4736;52.508;13.422;2024-03-08T13:30:21;18.10;;;15.70;;
9392;SDS011;4736;52.508;13.422;2024-03-08T13:33:27;18.83;;;16.50;;
9392;SDS011;4736;52.508;13.422;2024-03-08T13:36:31;23.80;;;17.83;;
9392;SDS011;4736;52.508;13.422;2024-03-08T13:39:42;17.53;;;15.37;;
9392;SDS011;4736;52.508;13.422;2024-03-08T13:42:46;19.90;;;16.17;;
9392;SDS011;4736;52.508;13.422;2024-03-08T13:45:50;23.53;;;16.70;;
9392;SDS011;4736;52.508;13.422;2024-03-08T13:48:54;19.93;;;17.83;;
9392;SDS011;4736;52.508;13.422;2024-03-08T13:51:57;19.03;;;16.17;;
9392;SDS011;4736;52.508;13.422;2024-03-08T13:55:02;17.73;;;15.93;;
9392;SDS011;4736;52.508;13.422;2024-03-08T13:58:06;18.30;;;15.37;;
9392;SDS011;4736;52.508;13.422;2024-03-08T14:01:10;18.60;;;16.50;;
9392;SDS011;4736;52.508;13.422;2024-03-08T14:04:14;21.20;;;16.33;;
9392;SDS011;4736;52.508;13.422;2024-03-08T14:07:18;20.47;;;15.57;;
9392;SDS011;4736;52.508;13.422;2024-03-08T14:10:22;17.63;;;15.13;;
9392;SDS011;4736;52.508;13.422;2024-03-08T14:13:26;18.93;;;16.57;;
9392;SDS011;4736;52.508;13.422;2024-03-08T14:16:29;18.70;;;15.80;;
9392;SDS011;4736;52.508;13.422;2024-03-08T14:19:32;17.97;;;15.77;;
9392;SDS011;4736;52.508;13.422;2024-03-08T14:22:36;18.07;;;15.47;;
9392;SDS011;4736;52.508;13.422;2024-03-08T14:25:41;18.47;;;15.97;;
9392;SDS011;4736;52.508;13.422;2024-03-08T14:28:44;21.60;;;15.90;;
9392;SDS011;4736;52.508;13.422;2024-03-08T14:31:47;16.73;;;14.97;;
9392;SDS011;4736;52.508;13.422;2024-03-08T14:34:50;19.87;;;16.47;;
9392;SDS011;4736;52.508;13.422;2024-03-08T14:37:54;19.17;;;16.60;;
9392;SDS011;4736;52.508;13.422;2024-03-08T14:40:59;18.00;;;16.07;;
9392;SDS011;4736;52.508;13.422;2024-03-08T14:44:05;21.83;;;16.37;;
9392;SDS011;4736;52.508;13.422;2024-03-08T14:47:08;19.23;;;15.70;;
9392;SDS011;4736;52.508;13.422;2024-03-08T14:50:12;20.47;;;15.93;;
9392;SDS011;4736;52.508;13.422;2024-03-08T14:53:15;17.00;;;15.20;;
9392;SDS011;4736;52.508;13.422;2024-03-08T14:56:21;18.67;;;16.17;;
9392;SDS011;4736;52.508;13.422;2024-03-08T14:59:25;15.80;;;14.13;;
9392;SDS011;4736;52.508;13.422;2024-03-08T15:02:30;15.40;;;13.73;;
9392;SDS011;4736;52.508;13.422;2024-03-08T15:05:37;15.23;;;13.03;;
9392;SDS011;4736;52.508;13.422;2024-03-08T15:08:46;14.97;;;13.10;;
9392;SDS011;4736;52.508;13.422;2024-03-08T15:11:51;15.37;;;12.53;;
9392;SDS011;4736;52.508;13.422;2024-03-08T15:14:56;14.03;;;12.47;;
9392;SDS011;4736;52.508;13.422;2024-03-08T15:17:59;18.57;;;13.90;;
9392;SDS011;4736;52.508;13.422;2024-03-08T15:21:05;15.53;;;13.03;;
9392;SDS011;4736;52.508;13.422;2024-03-08T15:24:09;15.33;;;13.47;;
9392;SDS011;4736;52.508;13.422;2024-03-08T15:27:18;14.80;;;13.30;;
9392;SDS011;4736;52.508;13.422;2024-03-08T15:30:21;18.60;;;13.27;;
9392;SDS011;4736;52.508;13.422;2024-03-08T15:33:27;14.13;;;12.20;;
9392;SDS011;4736;52.508;13.422;2024-03-08T15:36:32;14.53;;;13.03;;
9392;SDS011;4736;52.508;13.422;2024-03-08T15:39:35;14.40;;;12.90;;
9392;SDS011;4736;52.508;13.422;2024-03-08T15:42:41;16.93;;;13.57;;
9392;SDS011;4736;52.508;13.422;2024-03-08T15:45:44;14.37;;;12.73;;
9392;SDS011;4736;52.508;13.422;2024-03-08T15:48:47;14.67;;;13.17;;
9392;SDS011;4736;52.508;13.422;2024-03-08T15:51:53;16.90;;;14.30;;
9392;SDS011;4736;52.508;13.422;2024-03-08T15:54:56;17.10;;;12.80;;
9392;SDS011;4736;52.508;13.422;2024-03-08T15:58:01;16.70;;;13.30;;
9392;SDS011;4736;52.508;13.422;2024-03-08T16:01:04;16.50;;;14.67;;
9392;SDS011;4736;52.508;13.422;2024-03-08T16:04:08;17.03;;;13.73;;
9392;SDS011;4736;52.508;13.422;2024-03-08T16:07:12;16.90;;;13.43;;
9392;SDS011;4736;52.508;13.422;2024-03-08T16:10:15;14.90;;;13.20;;
9392;SDS011;4736;52.508;13.422;2024-03-08T16:13:19;16.67;;;13.70;;
9392;SDS011;4736;52.508;13.422;2024-03-08T16:16:23;14.13;;;12.17;;
9392;SDS011;4736;52.508;13.422;2024-03-08T16:19:27;19.00;;;13.47;;
9392;SDS011;4736;52.508;13.422;2024-03-08T16:22:32;14.77;;;13.10;;
9392;SDS011;4736;52.508;13.422;2024-03-08T16:25:35;16.20;;;13.70;;
9392;SDS011;4736;52.508;13.422;2024-03-08T16:28:41;14.83;;;13.30;;
9392;SDS011;4736;52.508;13.422;2024-03-08T16:31:45;17.07;;;13.10;;
9392;SDS011;4736;52.508;13.422;2024-03-08T16:34:48;16.80;;;13.00;;
9392;SDS011;4736;52.508;13.422;2024-03-08T16:37:53;14.57;;;12.93;;
9392;SDS011;4736;52.508;13.422;2024-03-08T16:40:57;17.83;;;13.57;;
9392;SDS011;4736;52.508;13.422;2024-03-08T16:44:03;16.23;;;13.27;;
9392;SDS011;4736;52.508;13.422;2024-03-08T16:47:07;14.80;;;13.03;;
9392;SDS011;4736;52.508;13.422;2024-03-08T16:50:11;16.77;;;13.57;;
9392;SDS011;4736;52.508;13.422;2024-03-08T16:53:16;16.20;;;13.93;;
9392;SDS011;4736;52.508;13.422;2024-03-08T16:56:21;16.60;;;13.83;;
9392;SDS011;4736;52.508;13.422;2024-03-08T16:59:27;14.90;;;13.40;;
9392;SDS011;4736;52.508;13.422;2024-03-08T17:02:30;15.20;;;13.67;;
9392;SDS011;4736;52.508;13.422;2024-03-08T17:05:34;15.90;;;13.60;;
9392;SDS011;4736;52.508;13.422;2024-03-08T17:08:39;14.97;;;13.37;;
9392;SDS011;4736;52.508;13.422;2024-03-08T17:11:42;17.13;;;13.80;;
9392;SDS011;4736;52.508;13.422;2024-03-08T17:14:46;16.40;;;13.83;;
9392;SDS011;4736;52.508;13.422;2024-03-08T17:17:50;19.03;;;13.83;;
9392;SDS011;4736;52.508;13.422;2024-03-08T17:20:54;17.77;;;14.23;;
9392;SDS011;4736;52.508;13.422;2024-03-08T17:23:57;16.27;;;13.97;;
9392;SDS011;4736;52.508;13.422;2024-03-08T17:27:02;16.90;;;14.50;;
9392;SDS011;4736;52.508;13.422;2024-03-08T17:30:09;17.27;;;13.73;;
9392;SDS011;4736;52.508;13.422;2024-03-08T17:33:21;15.77;;;13.93;;
9392;SDS011;4736;52.508;13.422;2024-03-08T17:36:26;18.83;;;14.37;;
9392;SDS011;4736;52.508;13.422;2024-03-08T17:39:30;18.03;;;14.80;;
9392;SDS011;4736;52.508;13.422;2024-03-08T17:42:35;17.70;;;14.33;;
9392;SDS011;4736;52.508;13.422;2024-03-08T17:45:40;17.10;;;14.33;;
9392;SDS011;4736;52.508;13.422;2024-03-08T17:48:47;18.80;;;13.57;;
9392;SDS011;4736;52.508;13.422;2024-03-08T17:51:50;17.87;;;15.90;;
9392;SDS011;4736;52.508;13.422;2024-03-08T17:54:54;17.50;;;15.70;;
9392;SDS011;4736;52.508;13.422;2024-03-08T17:57:57;18.87;;;14.50;;
9392;SDS011;4736;52.508;13.422;2024-03-08T18:01:02;18.07;;;15.10;;
9392;SDS011;4736;52.508;13.422;2024-03-08T18:04:10;18.90;;;14.67;;
9392;SDS011;4736;52.508;13.422;2024-03-08T18:07:14;20.17;;;16.00;;
9392;SDS011;4736;52.508;13.422;2024-03-08T18:10:17;20.60;;;15.70;;
9392;SDS011;4736;52.508;13.422;2024-03-08T18:13:22;19.13;;;16.93;;
9392;SDS011;4736;52.508;13.422;2024-03-08T18:16:27;23.67;;;17.70;;
9392;SDS011;4736;52.508;13.422;2024-03-08T18:19:32;21.90;;;16.63;;